sensor_id;sensor_type;location;lat;lon;timestamp;P1;durP1;ratioP1;P2;durP2;ratioP2
15258;SDS011;34462;51.368;12.364;2023-09-19T00:00:43;3.13;;;1.77;;
15258;SDS011;34462;51.368;12.364;2023-09-19T00:03:13;3.72;;;2.05;;
15258;SDS011;34462;51.368;12.364;2023-09-19T00:05:42;3.45;;;1.85;;
15258;SDS011;34462;51.368;12.364;2023-09-19T00:08:12;5.22;;;1.83;;
15258;SDS011;34462;51.368;12.364;2023-09-19T00:10:42;3.25;;;1.73;;
15258;SDS011;34462;51.368;12.364;2023-09-19T00:13:11;5.88;;;2.38;;
15258;SDS011;34462;51.368;12.364;2023-09-19T00:15:41;4.28;;;2.03;;
15258;SDS011;34462;51.368;12.364;2023-09-19T00:18:15;2.30;;;2.10;;
15258;SDS011;34462;51.368;12.364;2023-09-19T00:20:45;2.55;;;1.92;;
15258;SDS011;34462;51.368;12.364;2023-09-19T00:23:16;5.75;;;2.55;;
15258;SDS011;34462;51.368;12.364;2023-09-19T00:25:47;3.15;;;2.20;;
15258;SDS011;34462;51.368;12.364;2023-09-19T00:28:16;3.08;;;2.00;;
15258;SDS011;34462;51.368;12.364;2023-09-19T00:30:46;2.38;;;2.17;;
15258;SDS011;34462;51.368;12.364;2023-09-19T00:33:16;2.42;;;2.22;;
15258;SDS011;34462;51.368;12.364;2023-09-19T00:35:48;2.30;;;2.10;;
15258;SDS011;34462;51.368;12.364;2023-09-19T00:38:18;2.55;;;2.35;;
15258;SDS011;34462;51.368;12.364;2023-09-19T00:40:50;2.67;;;2.28;;
15258;SDS011;34462;51.368;12.364;2023-09-19T00:43:19;2.53;;;2.25;;
15258;SDS011;34462;51.368;12.364;2023-09-19T00:45:51;2.53;;;2.15;;
15258;SDS011;34462;51.368;12.364;2023-09-19T00:48:21;2.47;;;1.98;;
15258;SDS011;34462;51.368;12.364;2023-09-19T00:50:55;2.75;;;2.08;;
15258;SDS011;34462;51.368;12.364;2023-09-19T00:53:29;2.08;;;1.85;;
15258;SDS011;34462;51.368;12.364;2023-09-19T00:56:01;2.85;;;2.25;;
15258;SDS011;34462;51.368;12.364;2023-09-19T00:58:33;3.28;;;2.50;;
15258;SDS011;34462;51.368;12.364;2023-09-19T01:01:05;2.95;;;2.22;;
15258;SDS011;34462;51.368;12.364;2023-09-19T01:03:34;3.45;;;2.58;;
15258;SDS011;34462;51.368;12.364;2023-09-19T01:06:04;4.20;;;2.60;;
15258;SDS011;34462;51.368;12.364;2023-09-19T01:08:33;2.47;;;2.28;;
15258;SDS011;34462;51.368;12.364;2023-09-19T01:11:06;3.00;;;2.47;;
15258;SDS011;34462;51.368;12.364;2023-09-19T01:13:46;3.85;;;2.58;;
15258;SDS011;34462;51.368;12.364;2023-09-19T01:16:28;3.38;;;2.47;;
15258;SDS011;34462;51.368;12.364;2023-09-19T01:19:19;4.35;;;2.30;;
15258;SDS011;34462;51.368;12.364;2023-09-19T01:22:33;4.00;;;2.70;;
15258;SDS011;34462;51.368;12.364;2023-09-19T01:25:19;5.30;;;2.65;;
15258;SDS011;34462;51.368;12.364;2023-09-19T01:28:43;4.45;;;2.75;;
15258;SDS011;34462;51.368;12.364;2023-09-19T01:31:23;4.40;;;2.80;;
15258;SDS011;34462;51.368;12.364;2023-09-19T01:33:57;2.55;;;2.35;;
15258;SDS011;34462;51.368;12.364;2023-09-19T01:36:28;4.43;;;2.95;;
15258;SDS011;34462;51.368;12.364;2023-09-19T01:39:00;5.95;;;2.90;;
15258;SDS011;34462;51.368;12.364;2023-09-19T01:41:41;5.80;;;3.20;;
15258;SDS011;34462;51.368;12.364;2023-09-19T01:44:24;4.25;;;2.47;;
15258;SDS011;34462;51.368;12.364;2023-09-19T01:47:08;2.70;;;2.50;;
15258;SDS011;34462;51.368;12.364;2023-09-19T01:49:50;2.45;;;2.22;;
15258;SDS011;34462;51.368;12.364;2023-09-19T01:52:31;5.05;;;2.53;;
15258;SDS011;34462;51.368;12.364;2023-09-19T01:55:10;4.32;;;2.60;;
15258;SDS011;34462;51.368;12.364;2023-09-19T01:57:47;3.38;;;2.97;;
15258;SDS011;34462;51.368;12.364;2023-09-19T02:00:21;2.65;;;2.42;;
15258;SDS011;34462;51.368;12.364;2023-09-19T02:02:54;2.55;;;2.35;;
15258;SDS011;34462;51.368;12.364;2023-09-19T02:05:26;2.53;;;2.33;;
15258;SDS011;34462;51.368;12.364;2023-09-19T02:07:55;2.47;;;2.25;;
15258;SDS011;34462;51.368;12.364;2023-09-19T02:10:25;3.20;;;2.50;;
15258;SDS011;34462;51.368;12.364;2023-09-19T02:12:53;4.05;;;2.03;;
15258;SDS011;34462;51.368;12.364;2023-09-19T02:15:22;2.20;;;2.00;;
15258;SDS011;34462;51.368;12.364;2023-09-19T02:17:50;2.15;;;1.75;;
15258;SDS011;34462;51.368;12.364;2023-09-19T02:20:20;2.47;;;1.90;;
15258;SDS011;34462;51.368;12.364;2023-09-19T02:22:49;1.98;;;1.80;;
15258;SDS011;34462;51.368;12.364;2023-09-19T02:25:18;2.33;;;1.85;;
15258;SDS011;34462;51.368;12.364;2023-09-19T02:27:46;2.28;;;1.88;;
15258;SDS011;34462;51.368;12.364;2023-09-19T02:30:14;2.25;;;1.80;;
15258;SDS011;34462;51.368;12.364;2023-09-19T02:32:46;2.55;;;2.00;;
15258;SDS011;34462;51.368;12.364;2023-09-19T02:35:16;3.83;;;1.90;;
15258;SDS011;34462;51.368;12.364;2023-09-19T02:37:47;2.72;;;1.75;;
15258;SDS011;34462;51.368;12.364;2023-09-19T02:40:16;3.10;;;1.80;;
15258;SDS011;34462;51.368;12.364;2023-09-19T02:42:48;2.75;;;1.70;;
15258;SDS011;34462;51.368;12.364;2023-09-19T02:45:20;3.08;;;1.55;;
15258;SDS011;34462;51.368;12.364;2023-09-19T02:47:49;2.80;;;1.80;;
15258;SDS011;34462;51.368;12.364;2023-09-19T02:50:18;3.30;;;1.70;;
15258;SDS011;34462;51.368;12.364;2023-09-19T02:52:48;1.90;;;1.65;;
15258;SDS011;34462;51.368;12.364;2023-09-19T02:55:17;3.10;;;1.75;;
15258;SDS011;34462;51.368;12.364;2023-09-19T02:57:49;1.63;;;1.52;;
15258;SDS011;34462;51.368;12.364;2023-09-19T03:00:19;3.22;;;1.73;;
15258;SDS011;34462;51.368;12.364;2023-09-19T03:02:48;1.80;;;1.70;;
15258;SDS011;34462;51.368;12.364;2023-09-19T03:05:18;2.95;;;1.58;;
15258;SDS011;34462;51.368;12.364;2023-09-19T03:07:48;3.40;;;1.83;;
15258;SDS011;34462;51.368;12.364;2023-09-19T03:10:17;2.25;;;1.60;;
15258;SDS011;34462;51.368;12.364;2023-09-19T03:12:47;3.08;;;1.50;;
15258;SDS011;34462;51.368;12.364;2023-09-19T03:15:16;2.70;;;1.50;;
15258;SDS011;34462;51.368;12.364;2023-09-19T03:17:45;1.73;;;1.30;;
15258;SDS011;34462;51.368;12.364;2023-09-19T03:20:16;1.92;;;1.48;;
15258;SDS011;34462;51.368;12.364;2023-09-19T03:22:45;3.03;;;1.73;;
15258;SDS011;34462;51.368;12.364;2023-09-19T03:25:16;1.88;;;1.60;;
15258;SDS011;34462;51.368;12.364;2023-09-19T03:27:45;2.25;;;1.42;;
15258;SDS011;34462;51.368;12.364;2023-09-19T03:30:14;2.10;;;1.58;;
15258;SDS011;34462;51.368;12.364;2023-09-19T03:32:43;1.58;;;1.33;;
15258;SDS011;34462;51.368;12.364;2023-09-19T03:35:13;2.38;;;1.67;;
15258;SDS011;34462;51.368;12.364;2023-09-19T03:37:43;1.88;;;1.50;;
15258;SDS011;34462;51.368;12.364;2023-09-19T03:40:11;2.80;;;1.58;;
15258;SDS011;34462;51.368;12.364;2023-09-19T03:42:42;1.95;;;1.60;;
15258;SDS011;34462;51.368;12.364;2023-09-19T03:45:10;1.67;;;1.48;;
15258;SDS011;34462;51.368;12.364;2023-09-19T03:47:39;2.17;;;1.50;;
15258;SDS011;34462;51.368;12.364;2023-09-19T03:50:08;2.00;;;1.60;;
15258;SDS011;34462;51.368;12.364;2023-09-19T03:52:38;1.90;;;1.70;;
15258;SDS011;34462;51.368;12.364;2023-09-19T03:55:07;2.17;;;1.80;;
15258;SDS011;34462;51.368;12.364;2023-09-19T03:57:36;1.83;;;1.60;;
15258;SDS011;34462;51.368;12.364;2023-09-19T04:00:06;1.73;;;1.60;;
15258;SDS011;34462;51.368;12.364;2023-09-19T04:02:38;2.70;;;1.48;;
15258;SDS011;34462;51.368;12.364;2023-09-19T04:05:07;2.60;;;1.63;;
15258;SDS011;34462;51.368;12.364;2023-09-19T04:07:36;2.60;;;1.67;;
15258;SDS011;34462;51.368;12.364;2023-09-19T04:10:05;2.53;;;1.50;;
15258;SDS011;34462;51.368;12.364;2023-09-19T04:12:38;1.90;;;1.65;;
15258;SDS011;34462;51.368;12.364;2023-09-19T04:15:08;2.22;;;1.40;;
15258;SDS011;34462;51.368;12.364;2023-09-19T04:17:41;2.95;;;1.75;;
15258;SDS011;34462;51.368;12.364;2023-09-19T04:20:10;3.30;;;1.90;;
15258;SDS011;34462;51.368;12.364;2023-09-19T04:22:39;2.72;;;1.70;;
15258;SDS011;34462;51.368;12.364;2023-09-19T04:25:07;2.63;;;1.70;;
15258;SDS011;34462;51.368;12.364;2023-09-19T04:27:36;2.22;;;1.77;;
15258;SDS011;34462;51.368;12.364;2023-09-19T04:30:05;2.05;;;1.70;;
15258;SDS011;34462;51.368;12.364;2023-09-19T04:32:38;2.70;;;1.52;;
15258;SDS011;34462;51.368;12.364;2023-09-19T04:35:07;2.15;;;1.80;;
15258;SDS011;34462;51.368;12.364;2023-09-19T04:37:37;2.97;;;1.90;;
15258;SDS011;34462;51.368;12.364;2023-09-19T04:40:07;1.60;;;1.50;;
15258;SDS011;34462;51.368;12.364;2023-09-19T04:42:39;2.42;;;1.58;;
15258;SDS011;34462;51.368;12.364;2023-09-19T04:45:10;1.73;;;1.40;;
15258;SDS011;34462;51.368;12.364;2023-09-19T04:47:39;4.63;;;1.70;;
15258;SDS011;34462;51.368;12.364;2023-09-19T04:50:09;2.15;;;1.70;;
15258;SDS011;34462;51.368;12.364;2023-09-19T04:52:41;2.60;;;1.60;;
15258;SDS011;34462;51.368;12.364;2023-09-19T04:55:10;2.03;;;1.55;;
15258;SDS011;34462;51.368;12.364;2023-09-19T04:57:43;1.80;;;1.70;;
15258;SDS011;34462;51.368;12.364;2023-09-19T05:00:14;2.03;;;1.70;;
15258;SDS011;34462;51.368;12.364;2023-09-19T05:02:45;2.70;;;1.50;;
15258;SDS011;34462;51.368;12.364;2023-09-19T05:05:16;2.03;;;1.52;;
15258;SDS011;34462;51.368;12.364;2023-09-19T05:07:46;2.75;;;1.75;;
15258;SDS011;34462;51.368;12.364;2023-09-19T05:10:14;2.17;;;1.58;;
15258;SDS011;34462;51.368;12.364;2023-09-19T05:12:45;1.77;;;1.67;;
15258;SDS011;34462;51.368;12.364;2023-09-19T05:15:16;2.70;;;1.50;;
15258;SDS011;34462;51.368;12.364;2023-09-19T05:17:47;1.95;;;1.40;;
15258;SDS011;34462;51.368;12.364;2023-09-19T05:20:22;2.00;;;1.60;;
15258;SDS011;34462;51.368;12.364;2023-09-19T05:22:59;1.67;;;1.40;;
15258;SDS011;34462;51.368;12.364;2023-09-19T05:25:29;1.63;;;1.35;;
15258;SDS011;34462;51.368;12.364;2023-09-19T05:28:04;1.60;;;1.50;;
15258;SDS011;34462;51.368;12.364;2023-09-19T05:30:35;2.97;;;1.48;;
15258;SDS011;34462;51.368;12.364;2023-09-19T05:33:05;1.92;;;1.50;;
15258;SDS011;34462;51.368;12.364;2023-09-19T05:35:33;1.73;;;1.45;;
15258;SDS011;34462;51.368;12.364;2023-09-19T05:38:03;1.98;;;1.60;;
15258;SDS011;34462;51.368;12.364;2023-09-19T05:40:35;3.67;;;1.83;;
15258;SDS011;34462;51.368;12.364;2023-09-19T05:43:05;1.83;;;1.67;;
15258;SDS011;34462;51.368;12.364;2023-09-19T05:45:34;4.00;;;1.60;;
15258;SDS011;34462;51.368;12.364;2023-09-19T05:48:07;2.70;;;1.85;;
15258;SDS011;34462;51.368;12.364;2023-09-19T05:50:37;2.15;;;1.58;;
15258;SDS011;34462;51.368;12.364;2023-09-19T05:53:06;2.15;;;1.60;;
15258;SDS011;34462;51.368;12.364;2023-09-19T05:55:34;3.45;;;1.83;;
15258;SDS011;34462;51.368;12.364;2023-09-19T05:58:03;2.92;;;1.50;;
15258;SDS011;34462;51.368;12.364;2023-09-19T06:00:31;2.85;;;1.65;;
15258;SDS011;34462;51.368;12.364;2023-09-19T06:03:03;2.45;;;1.80;;
15258;SDS011;34462;51.368;12.364;2023-09-19T06:05:32;2.90;;;1.48;;
15258;SDS011;34462;51.368;12.364;2023-09-19T06:08:00;3.53;;;1.63;;
15258;SDS011;34462;51.368;12.364;2023-09-19T06:10:34;1.90;;;1.67;;
15258;SDS011;34462;51.368;12.364;2023-09-19T06:13:02;2.40;;;1.42;;
15258;SDS011;34462;51.368;12.364;2023-09-19T06:15:32;3.00;;;1.88;;
15258;SDS011;34462;51.368;12.364;2023-09-19T06:18:04;4.32;;;1.70;;
15258;SDS011;34462;51.368;12.364;2023-09-19T06:20:33;1.50;;;1.38;;
15258;SDS011;34462;51.368;12.364;2023-09-19T06:23:01;2.30;;;1.40;;
15258;SDS011;34462;51.368;12.364;2023-09-19T06:25:31;1.63;;;1.40;;
15258;SDS011;34462;51.368;12.364;2023-09-19T06:27:59;2.95;;;1.70;;
15258;SDS011;34462;51.368;12.364;2023-09-19T06:30:31;1.50;;;1.25;;
15258;SDS011;34462;51.368;12.364;2023-09-19T06:33:00;2.65;;;1.50;;
15258;SDS011;34462;51.368;12.364;2023-09-19T06:35:31;1.95;;;1.50;;
15258;SDS011;34462;51.368;12.364;2023-09-19T06:38:02;3.60;;;1.40;;
15258;SDS011;34462;51.368;12.364;2023-09-19T06:40:33;2.85;;;1.70;;
15258;SDS011;34462;51.368;12.364;2023-09-19T06:43:02;2.95;;;1.60;;
15258;SDS011;34462;51.368;12.364;2023-09-19T06:45:32;4.07;;;1.80;;
15258;SDS011;34462;51.368;12.364;2023-09-19T06:48:00;3.22;;;1.42;;
15258;SDS011;34462;51.368;12.364;2023-09-19T06:50:29;3.10;;;1.60;;
15258;SDS011;34462;51.368;12.364;2023-09-19T06:53:02;3.58;;;1.50;;
15258;SDS011;34462;51.368;12.364;2023-09-19T06:55:30;1.75;;;1.45;;
15258;SDS011;34462;51.368;12.364;2023-09-19T06:57:59;2.55;;;1.40;;
15258;SDS011;34462;51.368;12.364;2023-09-19T07:00:27;3.47;;;1.67;;
15258;SDS011;34462;51.368;12.364;2023-09-19T07:02:58;1.67;;;1.58;;
15258;SDS011;34462;51.368;12.364;2023-09-19T07:05:32;1.20;;;1.10;;
15258;SDS011;34462;51.368;12.364;2023-09-19T07:08:06;1.83;;;1.50;;
15258;SDS011;34462;51.368;12.364;2023-09-19T07:10:37;3.10;;;1.48;;
15258;SDS011;34462;51.368;12.364;2023-09-19T07:13:07;2.20;;;1.33;;
15258;SDS011;34462;51.368;12.364;2023-09-19T07:15:37;3.20;;;1.40;;
15258;SDS011;34462;51.368;12.364;2023-09-19T07:18:13;2.50;;;1.30;;
15258;SDS011;34462;51.368;12.364;2023-09-19T07:20:44;2.20;;;1.35;;
15258;SDS011;34462;51.368;12.364;2023-09-19T07:23:16;1.92;;;1.40;;
15258;SDS011;34462;51.368;12.364;2023-09-19T07:25:45;2.45;;;1.23;;
15258;SDS011;34462;51.368;12.364;2023-09-19T07:28:16;4.13;;;1.52;;
15258;SDS011;34462;51.368;12.364;2023-09-19T07:30:45;2.78;;;1.27;;
15258;SDS011;34462;51.368;12.364;2023-09-19T07:33:13;3.40;;;1.55;;
15258;SDS011;34462;51.368;12.364;2023-09-19T07:35:46;2.15;;;1.48;;
15258;SDS011;34462;51.368;12.364;2023-09-19T07:38:14;3.50;;;1.30;;
15258;SDS011;34462;51.368;12.364;2023-09-19T07:40:44;3.47;;;1.20;;
15258;SDS011;34462;51.368;12.364;2023-09-19T07:43:12;2.38;;;1.20;;
15258;SDS011;34462;51.368;12.364;2023-09-19T07:45:40;2.42;;;1.55;;
15258;SDS011;34462;51.368;12.364;2023-09-19T07:48:09;2.45;;;1.27;;
15258;SDS011;34462;51.368;12.364;2023-09-19T07:50:41;4.13;;;1.50;;
15258;SDS011;34462;51.368;12.364;2023-09-19T07:53:12;2.28;;;1.17;;
15258;SDS011;34462;51.368;12.364;2023-09-19T07:55:42;2.10;;;1.30;;
15258;SDS011;34462;51.368;12.364;2023-09-19T07:58:14;3.20;;;1.10;;
15258;SDS011;34462;51.368;12.364;2023-09-19T08:00:43;2.50;;;1.25;;
15258;SDS011;34462;51.368;12.364;2023-09-19T08:03:12;2.75;;;1.30;;
15258;SDS011;34462;51.368;12.364;2023-09-19T08:05:43;3.58;;;1.30;;
15258;SDS011;34462;51.368;12.364;2023-09-19T08:08:13;5.05;;;1.50;;
15258;SDS011;34462;51.368;12.364;2023-09-19T08:10:42;5.97;;;1.27;;
15258;SDS011;34462;51.368;12.364;2023-09-19T08:13:12;3.25;;;1.30;;
15258;SDS011;34462;51.368;12.364;2023-09-19T08:15:43;2.80;;;1.13;;
15258;SDS011;34462;51.368;12.364;2023-09-19T08:18:12;4.40;;;1.67;;
15258;SDS011;34462;51.368;12.364;2023-09-19T08:20:40;1.88;;;1.15;;
15258;SDS011;34462;51.368;12.364;2023-09-19T08:23:13;2.75;;;1.40;;
15258;SDS011;34462;51.368;12.364;2023-09-19T08:25:44;3.17;;;1.23;;
15258;SDS011;34462;51.368;12.364;2023-09-19T08:28:12;2.60;;;1.33;;
15258;SDS011;34462;51.368;12.364;2023-09-19T08:30:45;3.80;;;1.20;;
15258;SDS011;34462;51.368;12.364;2023-09-19T08:33:13;3.67;;;1.35;;
15258;SDS011;34462;51.368;12.364;2023-09-19T08:35:42;4.75;;;1.40;;
15258;SDS011;34462;51.368;12.364;2023-09-19T08:38:13;3.33;;;1.48;;
15258;SDS011;34462;51.368;12.364;2023-09-19T08:40:41;2.30;;;1.40;;
15258;SDS011;34462;51.368;12.364;2023-09-19T08:43:10;2.83;;;1.20;;
15258;SDS011;34462;51.368;12.364;2023-09-19T08:45:39;2.47;;;1.33;;
15258;SDS011;34462;51.368;12.364;2023-09-19T08:48:13;4.13;;;1.52;;
15258;SDS011;34462;51.368;12.364;2023-09-19T08:50:51;3.17;;;1.10;;
15258;SDS011;34462;51.368;12.364;2023-09-19T08:53:31;2.58;;;1.10;;
15258;SDS011;34462;51.368;12.364;2023-09-19T08:56:09;2.63;;;1.10;;
15258;SDS011;34462;51.368;12.364;2023-09-19T08:58:43;2.20;;;1.40;;
15258;SDS011;34462;51.368;12.364;2023-09-19T09:01:15;4.85;;;1.48;;
15258;SDS011;34462;51.368;12.364;2023-09-19T09:03:51;3.78;;;1.20;;
15258;SDS011;34462;51.368;12.364;2023-09-19T09:06:21;4.25;;;1.65;;
15258;SDS011;34462;51.368;12.364;2023-09-19T09:08:52;2.88;;;1.35;;
15258;SDS011;34462;51.368;12.364;2023-09-19T09:11:21;3.63;;;1.15;;
15258;SDS011;34462;51.368;12.364;2023-09-19T09:13:51;5.85;;;1.60;;
15258;SDS011;34462;51.368;12.364;2023-09-19T09:16:19;3.03;;;1.45;;
15258;SDS011;34462;51.368;12.364;2023-09-19T09:18:52;3.45;;;1.30;;
15258;SDS011;34462;51.368;12.364;2023-09-19T09:21:21;3.45;;;1.17;;
15258;SDS011;34462;51.368;12.364;2023-09-19T09:23:54;1.80;;;1.23;;
15258;SDS011;34462;51.368;12.364;2023-09-19T09:29:10;2.70;;;1.40;;
15258;SDS011;34462;51.368;12.364;2023-09-19T09:31:41;1.05;;;0.95;;
15258;SDS011;34462;51.368;12.364;2023-09-19T09:34:10;3.88;;;1.58;;
15258;SDS011;34462;51.368;12.364;2023-09-19T09:36:40;3.45;;;1.58;;
15258;SDS011;34462;51.368;12.364;2023-09-19T09:39:10;3.00;;;1.50;;
15258;SDS011;34462;51.368;12.364;2023-09-19T09:41:50;2.50;;;1.48;;
15258;SDS011;34462;51.368;12.364;2023-09-19T09:44:19;2.40;;;1.40;;
15258;SDS011;34462;51.368;12.364;2023-09-19T09:46:48;2.35;;;1.40;;
15258;SDS011;34462;51.368;12.364;2023-09-19T09:49:47;2.60;;;1.15;;
15258;SDS011;34462;51.368;12.364;2023-09-19T09:52:43;3.17;;;1.40;;
15258;SDS011;34462;51.368;12.364;2023-09-19T09:55:14;2.45;;;1.42;;
15258;SDS011;34462;51.368;12.364;2023-09-19T09:57:45;2.63;;;1.20;;
15258;SDS011;34462;51.368;12.364;2023-09-19T10:00:13;3.58;;;1.50;;
15258;SDS011;34462;51.368;12.364;2023-09-19T10:02:47;2.78;;;1.50;;
15258;SDS011;34462;51.368;12.364;2023-09-19T10:05:16;3.75;;;1.67;;
15258;SDS011;34462;51.368;12.364;2023-09-19T10:08:10;2.92;;;1.60;;
15258;SDS011;34462;51.368;12.364;2023-09-19T10:10:41;4.90;;;1.42;;
15258;SDS011;34462;51.368;12.364;2023-09-19T10:13:20;5.05;;;1.40;;
15258;SDS011;34462;51.368;12.364;2023-09-19T10:15:53;2.47;;;1.50;;
15258;SDS011;34462;51.368;12.364;2023-09-19T10:18:26;3.47;;;1.40;;
15258;SDS011;34462;51.368;12.364;2023-09-19T10:20:56;2.90;;;1.40;;
15258;SDS011;34462;51.368;12.364;2023-09-19T10:23:25;2.42;;;1.55;;
15258;SDS011;34462;51.368;12.364;2023-09-19T10:25:58;1.63;;;1.20;;
15258;SDS011;34462;51.368;12.364;2023-09-19T10:28:29;2.50;;;1.23;;
15258;SDS011;34462;51.368;12.364;2023-09-19T10:31:01;5.70;;;1.70;;
15258;SDS011;34462;51.368;12.364;2023-09-19T10:33:34;2.88;;;1.50;;
15258;SDS011;34462;51.368;12.364;2023-09-19T10:36:05;2.95;;;1.60;;
15258;SDS011;34462;51.368;12.364;2023-09-19T10:38:35;2.92;;;1.50;;
15258;SDS011;34462;51.368;12.364;2023-09-19T10:41:12;3.67;;;1.60;;
15258;SDS011;34462;51.368;12.364;2023-09-19T10:43:46;3.70;;;1.58;;
15258;SDS011;34462;51.368;12.364;2023-09-19T10:46:18;3.70;;;1.42;;
15258;SDS011;34462;51.368;12.364;2023-09-19T10:48:47;3.15;;;1.77;;
15258;SDS011;34462;51.368;12.364;2023-09-19T10:51:21;2.08;;;1.30;;
15258;SDS011;34462;51.368;12.364;2023-09-19T10:53:59;2.90;;;1.25;;
15258;SDS011;34462;51.368;12.364;2023-09-19T10:56:42;2.25;;;1.50;;
15258;SDS011;34462;51.368;12.364;2023-09-19T10:59:17;2.75;;;1.40;;
15258;SDS011;34462;51.368;12.364;2023-09-19T11:01:47;2.22;;;1.42;;
15258;SDS011;34462;51.368;12.364;2023-09-19T11:04:24;3.60;;;1.38;;
15258;SDS011;34462;51.368;12.364;2023-09-19T11:06:59;4.78;;;1.55;;
15258;SDS011;34462;51.368;12.364;2023-09-19T11:09:43;3.58;;;1.40;;
15258;SDS011;34462;51.368;12.364;2023-09-19T11:18:52;3.47;;;1.45;;
15258;SDS011;34462;51.368;12.364;2023-09-19T11:24:32;4.53;;;1.67;;
15258;SDS011;34462;51.368;12.364;2023-09-19T11:27:11;3.30;;;1.35;;
15258;SDS011;34462;51.368;12.364;2023-09-19T11:29:46;2.33;;;1.30;;
15258;SDS011;34462;51.368;12.364;2023-09-19T11:32:15;2.90;;;1.50;;
15258;SDS011;34462;51.368;12.364;2023-09-19T11:34:46;3.63;;;1.55;;
15258;SDS011;34462;51.368;12.364;2023-09-19T11:40:36;5.63;;;1.73;;
15258;SDS011;34462;51.368;12.364;2023-09-19T11:43:30;3.67;;;1.63;;
15258;SDS011;34462;51.368;12.364;2023-09-19T11:46:07;2.35;;;1.48;;
15258;SDS011;34462;51.368;12.364;2023-09-19T11:48:37;4.75;;;1.33;;
15258;SDS011;34462;51.368;12.364;2023-09-19T11:51:12;3.67;;;1.52;;
15258;SDS011;34462;51.368;12.364;2023-09-19T11:53:53;2.97;;;1.70;;
15258;SDS011;34462;51.368;12.364;2023-09-19T11:56:24;3.75;;;1.55;;
15258;SDS011;34462;51.368;12.364;2023-09-19T11:58:55;3.78;;;1.48;;
15258;SDS011;34462;51.368;12.364;2023-09-19T12:01:29;3.97;;;1.60;;
15258;SDS011;34462;51.368;12.364;2023-09-19T12:04:01;2.75;;;1.50;;
15258;SDS011;34462;51.368;12.364;2023-09-19T12:06:34;3.72;;;1.70;;
15258;SDS011;34462;51.368;12.364;2023-09-19T12:09:05;4.25;;;1.58;;
15258;SDS011;34462;51.368;12.364;2023-09-19T12:11:33;3.40;;;1.40;;
15258;SDS011;34462;51.368;12.364;2023-09-19T12:14:10;4.00;;;1.92;;
15258;SDS011;34462;51.368;12.364;2023-09-19T12:16:52;2.45;;;1.48;;
15258;SDS011;34462;51.368;12.364;2023-09-19T12:19:22;3.80;;;1.55;;
15258;SDS011;34462;51.368;12.364;2023-09-19T12:21:54;2.10;;;1.40;;
15258;SDS011;34462;51.368;12.364;2023-09-19T12:24:31;4.05;;;1.65;;
15258;SDS011;34462;51.368;12.364;2023-09-19T12:27:04;4.18;;;1.77;;
15258;SDS011;34462;51.368;12.364;2023-09-19T12:29:42;3.28;;;1.50;;
15258;SDS011;34462;51.368;12.364;2023-09-19T12:32:13;2.20;;;1.80;;
15258;SDS011;34462;51.368;12.364;2023-09-19T12:34:49;3.38;;;1.58;;
15258;SDS011;34462;51.368;12.364;2023-09-19T12:37:21;3.60;;;2.00;;
15258;SDS011;34462;51.368;12.364;2023-09-19T12:40:03;4.55;;;1.98;;
15258;SDS011;34462;51.368;12.364;2023-09-19T12:42:42;3.47;;;2.17;;
15258;SDS011;34462;51.368;12.364;2023-09-19T12:45:12;3.60;;;1.77;;
15258;SDS011;34462;51.368;12.364;2023-09-19T12:50:59;4.38;;;2.13;;
15258;SDS011;34462;51.368;12.364;2023-09-19T12:53:32;2.20;;;1.65;;
15258;SDS011;34462;51.368;12.364;2023-09-19T12:56:06;2.95;;;1.70;;
15258;SDS011;34462;51.368;12.364;2023-09-19T12:58:47;2.78;;;1.58;;
15258;SDS011;34462;51.368;12.364;2023-09-19T13:01:17;4.35;;;2.03;;
15258;SDS011;34462;51.368;12.364;2023-09-19T13:03:50;4.07;;;2.22;;
15258;SDS011;34462;51.368;12.364;2023-09-19T13:06:41;4.05;;;2.30;;
15258;SDS011;34462;51.368;12.364;2023-09-19T13:09:10;2.63;;;2.10;;
15258;SDS011;34462;51.368;12.364;2023-09-19T13:11:41;3.65;;;1.80;;
15258;SDS011;34462;51.368;12.364;2023-09-19T13:14:13;2.38;;;1.90;;
15258;SDS011;34462;51.368;12.364;2023-09-19T13:16:54;2.97;;;2.10;;
15258;SDS011;34462;51.368;12.364;2023-09-19T13:19:41;3.72;;;2.10;;
15258;SDS011;34462;51.368;12.364;2023-09-19T13:25:10;4.55;;;1.90;;
15258;SDS011;34462;51.368;12.364;2023-09-19T13:27:44;4.03;;;1.95;;
15258;SDS011;34462;51.368;12.364;2023-09-19T13:30:17;3.90;;;1.77;;
15258;SDS011;34462;51.368;12.364;2023-09-19T13:32:49;2.67;;;1.90;;
15258;SDS011;34462;51.368;12.364;2023-09-19T13:35:19;4.07;;;2.10;;
15258;SDS011;34462;51.368;12.364;2023-09-19T13:37:48;3.13;;;2.20;;
15258;SDS011;34462;51.368;12.364;2023-09-19T13:40:18;3.33;;;2.25;;
15258;SDS011;34462;51.368;12.364;2023-09-19T13:42:46;3.88;;;2.10;;
15258;SDS011;34462;51.368;12.364;2023-09-19T13:45:14;3.33;;;1.85;;
15258;SDS011;34462;51.368;12.364;2023-09-19T13:47:44;4.72;;;2.50;;
15258;SDS011;34462;51.368;12.364;2023-09-19T13:50:12;3.72;;;2.30;;
15258;SDS011;34462;51.368;12.364;2023-09-19T13:52:42;2.95;;;1.90;;
15258;SDS011;34462;51.368;12.364;2023-09-19T13:55:10;2.83;;;2.17;;
15258;SDS011;34462;51.368;12.364;2023-09-19T13:57:46;3.20;;;2.30;;
15258;SDS011;34462;51.368;12.364;2023-09-19T14:00:16;6.38;;;2.20;;
15258;SDS011;34462;51.368;12.364;2023-09-19T14:02:44;2.95;;;2.25;;
15258;SDS011;34462;51.368;12.364;2023-09-19T14:05:15;3.55;;;2.50;;
15258;SDS011;34462;51.368;12.364;2023-09-19T14:07:46;3.30;;;2.30;;
15258;SDS011;34462;51.368;12.364;2023-09-19T14:10:15;3.33;;;2.20;;
15258;SDS011;34462;51.368;12.364;2023-09-19T14:12:44;2.63;;;2.30;;
15258;SDS011;34462;51.368;12.364;2023-09-19T14:15:14;2.60;;;2.03;;
15258;SDS011;34462;51.368;12.364;2023-09-19T14:17:42;3.78;;;2.50;;
15258;SDS011;34462;51.368;12.364;2023-09-19T14:20:11;3.97;;;2.30;;
15258;SDS011;34462;51.368;12.364;2023-09-19T14:22:40;3.60;;;2.10;;
15258;SDS011;34462;51.368;12.364;2023-09-19T14:25:10;3.25;;;2.58;;
15258;SDS011;34462;51.368;12.364;2023-09-19T14:27:39;3.88;;;2.38;;
15258;SDS011;34462;51.368;12.364;2023-09-19T14:30:08;4.85;;;2.28;;
15258;SDS011;34462;51.368;12.364;2023-09-19T14:32:37;6.55;;;3.55;;
15258;SDS011;34462;51.368;12.364;2023-09-19T14:35:05;3.45;;;2.13;;
15258;SDS011;34462;51.368;12.364;2023-09-19T14:37:35;5.00;;;2.40;;
15258;SDS011;34462;51.368;12.364;2023-09-19T14:40:06;3.70;;;2.30;;
15258;SDS011;34462;51.368;12.364;2023-09-19T14:42:39;5.88;;;2.60;;
15258;SDS011;34462;51.368;12.364;2023-09-19T14:45:10;5.63;;;2.70;;
15258;SDS011;34462;51.368;12.364;2023-09-19T14:47:41;3.60;;;2.30;;
15258;SDS011;34462;51.368;12.364;2023-09-19T14:50:09;3.97;;;2.10;;
15258;SDS011;34462;51.368;12.364;2023-09-19T14:52:39;2.80;;;2.20;;
15258;SDS011;34462;51.368;12.364;2023-09-19T14:55:07;2.90;;;2.38;;
15258;SDS011;34462;51.368;12.364;2023-09-19T14:57:43;3.00;;;2.15;;
15258;SDS011;34462;51.368;12.364;2023-09-19T15:00:12;4.20;;;2.38;;
15258;SDS011;34462;51.368;12.364;2023-09-19T15:02:42;3.42;;;2.70;;
15258;SDS011;34462;51.368;12.364;2023-09-19T15:05:12;5.32;;;2.30;;
15258;SDS011;34462;51.368;12.364;2023-09-19T15:07:45;5.45;;;2.47;;
15258;SDS011;34462;51.368;12.364;2023-09-19T15:10:13;3.97;;;2.40;;
15258;SDS011;34462;51.368;12.364;2023-09-19T15:12:44;3.50;;;2.47;;
15258;SDS011;34462;51.368;12.364;2023-09-19T15:15:12;5.38;;;2.50;;
15258;SDS011;34462;51.368;12.364;2023-09-19T15:17:40;5.38;;;2.72;;
15258;SDS011;34462;51.368;12.364;2023-09-19T15:20:09;4.63;;;2.60;;
15258;SDS011;34462;51.368;12.364;2023-09-19T15:22:40;4.55;;;2.40;;